sensor_id;sensor_type;location;lat;lon;timestamp;P1;durP1;ratioP1;P2;durP2;ratioP2
50851;SDS011;43953;45.508;-122.806;2023-03-11T00:00:23;1.27;;;0.90;;
50851;SDS011;43953;45.508;-122.806;2023-03-11T00:00:56;1.00;;;0.73;;
50851;SDS011;43953;45.508;-122.806;2023-03-11T00:01:28;0.70;;;0.70;;
50851;SDS011;43953;45.508;-122.806;2023-03-11T00:01:59;0.80;;;0.80;;
50851;SDS011;43953;45.508;-122.806;2023-03-11T00:02:31;1.52;;;0.70;;
50851;SDS011;43953;45.508;-122.806;2023-03-11T00:03:04;0.90;;;0.90;;
50851;SDS011;43953;45.508;-122.806;2023-03-11T00:03:37;0.85;;;0.80;;
50851;SDS011;43953;45.508;-122.806;2023-03-11T00:04:09;1.45;;;0.90;;
50851;SDS011;43953;45.508;-122.806;2023-03-11T00:04:41;0.95;;;0.70;;
50851;SDS011;43953;45.508;-122.806;2023-03-11T00:05:15;1.50;;;0.95;;
50851;SDS011;43953;45.508;-122.806;2023-03-11T00:05:52;0.80;;;0.80;;
50851;SDS011;43953;45.508;-122.806;2023-03-11T00:06:25;0.90;;;0.90;;
50851;SDS011;43953;45.508;-122.806;2023-03-11T00:06:57;1.88;;;1.00;;
50851;SDS011;43953;45.508;-122.806;2023-03-11T00:07:29;0.93;;;0.85;;
50851;SDS011;43953;45.508;-122.806;2023-03-11T00:08:00;1.08;;;0.90;;
50851;SDS011;43953;45.508;-122.806;2023-03-11T00:08:32;1.40;;;0.80;;
50851;SDS011;43953;45.508;-122.806;2023-03-11T00:09:04;0.90;;;0.90;;
50851;SDS011;43953;45.508;-122.806;2023-03-11T00:09:36;1.17;;;0.95;;
50851;SDS011;43953;45.508;-122.806;2023-03-11T00:10:10;0.93;;;0.80;;
50851;SDS011;43953;45.508;-122.806;2023-03-11T00:10:46;1.00;;;0.80;;
50851;SDS011;43953;45.508;-122.806;2023-03-11T00:11:21;0.88;;;0.80;;
50851;SDS011;43953;45.508;-122.806;2023-03-11T00:11:52;0.77;;;0.70;;
50851;SDS011;43953;45.508;-122.806;2023-03-11T00:12:24;0.70;;;0.70;;
50851;SDS011;43953;45.508;-122.806;2023-03-11T00:12:59;1.00;;;0.90;;
50851;SDS011;43953;45.508;-122.806;2023-03-11T00:13:31;1.83;;;0.82;;
50851;SDS011;43953;45.508;-122.806;2023-03-11T00:14:03;0.80;;;0.80;;
50851;SDS011;43953;45.508;-122.806;2023-03-11T00:14:35;1.20;;;0.70;;
50851;SDS011;43953;45.508;-122.806;2023-03-11T00:15:07;1.13;;;0.80;;
50851;SDS011;43953;45.508;-122.806;2023-03-11T00:15:39;0.93;;;0.73;;
50851;SDS011;43953;45.508;-122.806;2023-03-11T00:16:13;0.68;;;0.68;;
50851;SDS011;43953;45.508;-122.806;2023-03-11T00:16:45;0.70;;;0.55;;
50851;SDS011;43953;45.508;-122.806;2023-03-11T00:17:16;0.82;;;0.80;;
50851;SDS011;43953;45.508;-122.806;2023-03-11T00:17:48;0.50;;;0.50;;
50851;SDS011;43953;45.508;-122.806;2023-03-11T00:18:20;0.80;;;0.60;;
50851;SDS011;43953;45.508;-122.806;2023-03-11T00:18:56;0.47;;;0.47;;
50851;SDS011;43953;45.508;-122.806;2023-03-11T00:19:28;0.73;;;0.60;;
50851;SDS011;43953;45.508;-122.806;2023-03-11T00:20:00;0.55;;;0.50;;
50851;SDS011;43953;45.508;-122.806;2023-03-11T00:20:33;0.60;;;0.60;;
50851;SDS011;43953;45.508;-122.806;2023-03-11T00:21:12;1.05;;;0.68;;
50851;SDS011;43953;45.508;-122.806;2023-03-11T00:21:46;1.60;;;0.55;;
50851;SDS011;43953;45.508;-122.806;2023-03-11T00:22:18;0.60;;;0.60;;
50851;SDS011;43953;45.508;-122.806;2023-03-11T00:22:50;1.40;;;0.80;;
50851;SDS011;43953;45.508;-122.806;2023-03-11T00:23:23;0.73;;;0.65;;
50851;SDS011;43953;45.508;-122.806;2023-03-11T00:23:56;0.82;;;0.70;;
50851;SDS011;43953;45.508;-122.806;2023-03-11T00:24:30;1.15;;;0.60;;
50851;SDS011;43953;45.508;-122.806;2023-03-11T00:25:02;0.63;;;0.60;;
50851;SDS011;43953;45.508;-122.806;2023-03-11T00:25:35;0.60;;;0.60;;
50851;SDS011;43953;45.508;-122.806;2023-03-11T00:26:08;1.52;;;0.60;;
50851;SDS011;43953;45.508;-122.806;2023-03-11T00:26:39;0.95;;;0.65;;
50851;SDS011;43953;45.508;-122.806;2023-03-11T00:27:11;1.00;;;0.55;;
50851;SDS011;43953;45.508;-122.806;2023-03-11T00:27:43;0.82;;;0.65;;
50851;SDS011;43953;45.508;-122.806;2023-03-11T00:28:14;0.60;;;0.60;;
50851;SDS011;43953;45.508;-122.806;2023-03-11T00:28:46;0.68;;;0.68;;
50851;SDS011;43953;45.508;-122.806;2023-03-11T00:29:19;0.77;;;0.60;;
50851;SDS011;43953;45.508;-122.806;2023-03-11T00:29:50;0.60;;;0.60;;
50851;SDS011;43953;45.508;-122.806;2023-03-11T00:30:22;1.13;;;0.90;;
50851;SDS011;43953;45.508;-122.806;2023-03-11T00:30:55;1.33;;;0.70;;
50851;SDS011;43953;45.508;-122.806;2023-03-11T00:31:27;1.42;;;0.77;;
50851;SDS011;43953;45.508;-122.806;2023-03-11T00:31:58;0.70;;;0.70;;
50851;SDS011;43953;45.508;-122.806;2023-03-11T00:32:30;0.77;;;0.77;;
50851;SDS011;43953;45.508;-122.806;2023-03-11T00:33:02;0.70;;;0.70;;
50851;SDS011;43953;45.508;-122.806;2023-03-11T00:33:35;1.45;;;0.75;;
50851;SDS011;43953;45.508;-122.806;2023-03-11T00:34:06;0.80;;;0.80;;
50851;SDS011;43953;45.508;-122.806;2023-03-11T00:34:38;1.00;;;0.90;;
50851;SDS011;43953;45.508;-122.806;2023-03-11T00:35:15;1.00;;;0.90;;
50851;SDS011;43953;45.508;-122.806;2023-03-11T00:35:49;1.50;;;0.85;;
50851;SDS011;43953;45.508;-122.806;2023-03-11T00:37:01;2.17;;;0.82;;
50851;SDS011;43953;45.508;-122.806;2023-03-11T00:37:32;1.33;;;0.90;;
50851;SDS011;43953;45.508;-122.806;2023-03-11T00:38:05;1.20;;;1.10;;
50851;SDS011;43953;45.508;-122.806;2023-03-11T00:38:38;1.35;;;1.25;;
50851;SDS011;43953;45.508;-122.806;2023-03-11T00:39:10;1.10;;;0.98;;
50851;SDS011;43953;45.508;-122.806;2023-03-11T00:39:41;1.38;;;1.00;;
50851;SDS011;43953;45.508;-122.806;2023-03-11T00:40:14;1.13;;;1.02;;
50851;SDS011;43953;45.508;-122.806;2023-03-11T00:40:48;0.80;;;0.80;;
50851;SDS011;43953;45.508;-122.806;2023-03-11T00:41:20;1.00;;;0.80;;
50851;SDS011;43953;45.508;-122.806;2023-03-11T00:41:52;1.35;;;0.93;;
50851;SDS011;43953;45.508;-122.806;2023-03-11T00:42:26;1.33;;;0.90;;
50851;SDS011;43953;45.508;-122.806;2023-03-11T00:42:57;0.80;;;0.80;;
50851;SDS011;43953;45.508;-122.806;2023-03-11T00:43:30;1.52;;;0.90;;
50851;SDS011;43953;45.508;-122.806;2023-03-11T00:44:01;1.33;;;0.90;;
50851;SDS011;43953;45.508;-122.806;2023-03-11T00:44:33;0.90;;;0.80;;
50851;SDS011;43953;45.508;-122.806;2023-03-11T00:45:05;1.55;;;0.70;;
50851;SDS011;43953;45.508;-122.806;2023-03-11T00:45:37;1.77;;;0.88;;
50851;SDS011;43953;45.508;-122.806;2023-03-11T00:46:09;1.30;;;0.90;;
50851;SDS011;43953;45.508;-122.806;2023-03-11T00:46:41;0.90;;;0.80;;
50851;SDS011;43953;45.508;-122.806;2023-03-11T00:47:12;1.88;;;0.90;;
50851;SDS011;43953;45.508;-122.806;2023-03-11T00:47:44;1.40;;;0.70;;
50851;SDS011;43953;45.508;-122.806;2023-03-11T00:48:16;0.70;;;0.70;;
50851;SDS011;43953;45.508;-122.806;2023-03-11T00:48:49;0.63;;;0.63;;
50851;SDS011;43953;45.508;-122.806;2023-03-11T00:49:21;0.70;;;0.70;;
50851;SDS011;43953;45.508;-122.806;2023-03-11T00:49:53;0.95;;;0.60;;
50851;SDS011;43953;45.508;-122.806;2023-03-11T00:50:26;3.08;;;0.90;;
50851;SDS011;43953;45.508;-122.806;2023-03-11T00:50:59;0.65;;;0.60;;
50851;SDS011;43953;45.508;-122.806;2023-03-11T00:51:31;0.80;;;0.80;;
50851;SDS011;43953;45.508;-122.806;2023-03-11T00:52:03;0.90;;;0.70;;
50851;SDS011;43953;45.508;-122.806;2023-03-11T00:52:35;0.80;;;0.80;;
50851;SDS011;43953;45.508;-122.806;2023-03-11T00:53:07;0.75;;;0.68;;
50851;SDS011;43953;45.508;-122.806;2023-03-11T00:53:40;1.48;;;0.80;;
50851;SDS011;43953;45.508;-122.806;2023-03-11T00:54:12;0.90;;;0.88;;
50851;SDS011;43953;45.508;-122.806;2023-03-11T00:54:44;0.65;;;0.65;;
50851;SDS011;43953;45.508;-122.806;2023-03-11T00:55:20;1.70;;;0.70;;
50851;SDS011;43953;45.508;-122.806;2023-03-11T00:55:53;0.77;;;0.60;;
50851;SDS011;43953;45.508;-122.806;2023-03-11T00:56:25;1.48;;;0.93;;
50851;SDS011;43953;45.508;-122.806;2023-03-11T00:56:57;1.13;;;0.63;;
50851;SDS011;43953;45.508;-122.806;2023-03-11T00:57:28;2.17;;;0.90;;
50851;SDS011;43953;45.508;-122.806;2023-03-11T00:58:01;0.68;;;0.68;;
50851;SDS011;43953;45.508;-122.806;2023-03-11T00:58:34;1.30;;;1.13;;
50851;SDS011;43953;45.508;-122.806;2023-03-11T00:59:06;1.10;;;0.90;;
50851;SDS011;43953;45.508;-122.806;2023-03-11T00:59:38;1.40;;;0.70;;
50851;SDS011;43953;45.508;-122.806;2023-03-11T01:00:16;1.35;;;0.80;;
50851;SDS011;43953;45.508;-122.806;2023-03-11T01:00:49;0.50;;;0.50;;
50851;SDS011;43953;45.508;-122.806;2023-03-11T01:01:21;1.00;;;1.00;;
50851;SDS011;43953;45.508;-122.806;2023-03-11T01:01:53;0.77;;;0.77;;
50851;SDS011;43953;45.508;-122.806;2023-03-11T01:02:24;1.02;;;0.80;;
50851;SDS011;43953;45.508;-122.806;2023-03-11T01:02:56;1.13;;;0.82;;
50851;SDS011;43953;45.508;-122.806;2023-03-11T01:03:29;1.13;;;0.80;;
50851;SDS011;43953;45.508;-122.806;2023-03-11T01:04:01;2.15;;;1.00;;
50851;SDS011;43953;45.508;-122.806;2023-03-11T01:04:32;1.00;;;0.70;;
50851;SDS011;43953;45.508;-122.806;2023-03-11T01:05:04;0.68;;;0.68;;
50851;SDS011;43953;45.508;-122.806;2023-03-11T01:05:37;0.75;;;0.70;;
50851;SDS011;43953;45.508;-122.806;2023-03-11T01:06:09;1.73;;;0.80;;
50851;SDS011;43953;45.508;-122.806;2023-03-11T01:06:41;1.38;;;0.80;;
50851;SDS011;43953;45.508;-122.806;2023-03-11T01:07:13;0.65;;;0.65;;
50851;SDS011;43953;45.508;-122.806;2023-03-11T01:07:45;0.90;;;0.68;;
50851;SDS011;43953;45.508;-122.806;2023-03-11T01:08:17;0.98;;;0.70;;
50851;SDS011;43953;45.508;-122.806;2023-03-11T01:08:48;0.70;;;0.70;;
50851;SDS011;43953;45.508;-122.806;2023-03-11T01:09:20;0.80;;;0.80;;
50851;SDS011;43953;45.508;-122.806;2023-03-11T01:09:52;1.15;;;0.73;;
50851;SDS011;43953;45.508;-122.806;2023-03-11T01:10:24;0.70;;;0.70;;
50851;SDS011;43953;45.508;-122.806;2023-03-11T01:10:56;1.10;;;0.90;;
50851;SDS011;43953;45.508;-122.806;2023-03-11T01:11:28;0.98;;;0.70;;
50851;SDS011;43953;45.508;-122.806;2023-03-11T01:12:00;0.63;;;0.63;;
50851;SDS011;43953;45.508;-122.806;2023-03-11T01:12:32;0.90;;;0.80;;
50851;SDS011;43953;45.508;-122.806;2023-03-11T01:13:04;1.20;;;1.00;;
50851;SDS011;43953;45.508;-122.806;2023-03-11T01:13:35;1.55;;;0.90;;
50851;SDS011;43953;45.508;-122.806;2023-03-11T01:14:08;1.48;;;1.00;;
50851;SDS011;43953;45.508;-122.806;2023-03-11T01:14:40;0.95;;;0.90;;
50851;SDS011;43953;45.508;-122.806;2023-03-11T01:15:22;1.15;;;0.73;;
50851;SDS011;43953;45.508;-122.806;2023-03-11T01:15:56;0.70;;;0.70;;
50851;SDS011;43953;45.508;-122.806;2023-03-11T01:16:28;0.80;;;0.80;;
50851;SDS011;43953;45.508;-122.806;2023-03-11T01:17:00;1.15;;;0.90;;
50851;SDS011;43953;45.508;-122.806;2023-03-11T01:17:31;1.10;;;0.85;;
50851;SDS011;43953;45.508;-122.806;2023-03-11T01:18:03;1.67;;;0.90;;
50851;SDS011;43953;45.508;-122.806;2023-03-11T01:18:35;1.02;;;0.70;;
50851;SDS011;43953;45.508;-122.806;2023-03-11T01:19:07;0.80;;;0.80;;
50851;SDS011;43953;45.508;-122.806;2023-03-11T01:19:39;0.70;;;0.70;;
50851;SDS011;43953;45.508;-122.806;2023-03-11T01:20:11;1.58;;;0.88;;
50851;SDS011;43953;45.508;-122.806;2023-03-11T01:20:43;1.00;;;0.88;;
50851;SDS011;43953;45.508;-122.806;2023-03-11T01:21:14;1.48;;;0.95;;
50851;SDS011;43953;45.508;-122.806;2023-03-11T01:21:46;1.13;;;1.02;;
50851;SDS011;43953;45.508;-122.806;2023-03-11T01:22:18;0.77;;;0.77;;
50851;SDS011;43953;45.508;-122.806;2023-03-11T01:22:49;1.08;;;0.90;;
50851;SDS011;43953;45.508;-122.806;2023-03-11T01:23:21;1.10;;;0.82;;
50851;SDS011;43953;45.508;-122.806;2023-03-11T01:23:53;1.00;;;0.90;;
50851;SDS011;43953;45.508;-122.806;2023-03-11T01:24:24;0.70;;;0.65;;
50851;SDS011;43953;45.508;-122.806;2023-03-11T01:24:56;1.15;;;0.85;;
50851;SDS011;43953;45.508;-122.806;2023-03-11T01:25:28;1.05;;;0.82;;
50851;SDS011;43953;45.508;-122.806;2023-03-11T01:26:00;1.33;;;1.23;;
50851;SDS011;43953;45.508;-122.806;2023-03-11T01:26:32;0.88;;;0.85;;
50851;SDS011;43953;45.508;-122.806;2023-03-11T01:27:03;1.10;;;0.80;;
50851;SDS011;43953;45.508;-122.806;2023-03-11T01:27:35;0.70;;;0.70;;
50851;SDS011;43953;45.508;-122.806;2023-03-11T01:28:07;0.80;;;0.80;;
50851;SDS011;43953;45.508;-122.806;2023-03-11T01:28:39;1.02;;;0.80;;
50851;SDS011;43953;45.508;-122.806;2023-03-11T01:29:11;1.23;;;0.80;;
50851;SDS011;43953;45.508;-122.806;2023-03-11T01:29:42;1.25;;;0.80;;
50851;SDS011;43953;45.508;-122.806;2023-03-11T01:30:20;1.70;;;0.85;;
50851;SDS011;43953;45.508;-122.806;2023-03-11T01:30:53;0.95;;;0.80;;
50851;SDS011;43953;45.508;-122.806;2023-03-11T01:31:25;1.92;;;0.90;;
50851;SDS011;43953;45.508;-122.806;2023-03-11T01:31:57;1.58;;;0.98;;
50851;SDS011;43953;45.508;-122.806;2023-03-11T01:32:29;1.33;;;0.80;;
50851;SDS011;43953;45.508;-122.806;2023-03-11T01:33:01;0.90;;;0.90;;
50851;SDS011;43953;45.508;-122.806;2023-03-11T01:33:33;1.67;;;0.90;;
50851;SDS011;43953;45.508;-122.806;2023-03-11T01:34:05;1.48;;;0.90;;
50851;SDS011;43953;45.508;-122.806;2023-03-11T01:34:36;1.40;;;0.93;;
50851;SDS011;43953;45.508;-122.806;2023-03-11T01:35:10;2.20;;;1.02;;
50851;SDS011;43953;45.508;-122.806;2023-03-11T01:35:46;1.27;;;0.90;;
50851;SDS011;43953;45.508;-122.806;2023-03-11T01:36:18;1.27;;;0.88;;
50851;SDS011;43953;45.508;-122.806;2023-03-11T01:36:50;0.90;;;0.90;;
50851;SDS011;43953;45.508;-122.806;2023-03-11T01:37:22;0.88;;;0.80;;
50851;SDS011;43953;45.508;-122.806;2023-03-11T01:37:54;1.02;;;0.98;;
50851;SDS011;43953;45.508;-122.806;2023-03-11T01:38:25;1.50;;;0.98;;
50851;SDS011;43953;45.508;-122.806;2023-03-11T01:38:57;2.80;;;1.02;;
50851;SDS011;43953;45.508;-122.806;2023-03-11T01:39:29;2.35;;;0.85;;
50851;SDS011;43953;45.508;-122.806;2023-03-11T01:40:01;1.20;;;0.90;;
50851;SDS011;43953;45.508;-122.806;2023-03-11T01:40:37;1.25;;;1.00;;
50851;SDS011;43953;45.508;-122.806;2023-03-11T01:41:11;1.60;;;1.00;;
50851;SDS011;43953;45.508;-122.806;2023-03-11T01:41:43;1.98;;;1.00;;
50851;SDS011;43953;45.508;-122.806;2023-03-11T01:42:14;1.67;;;0.90;;
50851;SDS011;43953;45.508;-122.806;2023-03-11T01:42:46;1.42;;;1.05;;
50851;SDS011;43953;45.508;-122.806;2023-03-11T01:44:11;0.70;;;0.70;;
50851;SDS011;43953;45.508;-122.806;2023-03-11T01:44:43;1.27;;;0.93;;
50851;SDS011;43953;45.508;-122.806;2023-03-11T01:46:25;1.92;;;1.08;;
50851;SDS011;43953;45.508;-122.806;2023-03-11T01:47:34;2.30;;;1.15;;
50851;SDS011;43953;45.508;-122.806;2023-03-11T01:48:10;0.80;;;0.80;;
50851;SDS011;43953;45.508;-122.806;2023-03-11T01:48:44;1.25;;;0.80;;
50851;SDS011;43953;45.508;-122.806;2023-03-11T01:49:20;1.63;;;0.85;;
50851;SDS011;43953;45.508;-122.806;2023-03-11T01:49:53;1.63;;;0.80;;
50851;SDS011;43953;45.508;-122.806;2023-03-11T01:50:26;1.27;;;0.85;;
50851;SDS011;43953;45.508;-122.806;2023-03-11T01:51:02;1.73;;;0.85;;
50851;SDS011;43953;45.508;-122.806;2023-03-11T01:51:45;0.95;;;0.77;;
50851;SDS011;43953;45.508;-122.806;2023-03-11T01:52:21;1.38;;;0.90;;
50851;SDS011;43953;45.508;-122.806;2023-03-11T01:52:54;1.17;;;0.70;;
50851;SDS011;43953;45.508;-122.806;2023-03-11T01:53:26;2.35;;;0.80;;
50851;SDS011;43953;45.508;-122.806;2023-03-11T01:53:59;1.05;;;0.70;;
50851;SDS011;43953;45.508;-122.806;2023-03-11T01:54:34;0.85;;;0.70;;
50851;SDS011;43953;45.508;-122.806;2023-03-11T01:55:09;1.60;;;0.90;;
50851;SDS011;43953;45.508;-122.806;2023-03-11T01:55:43;3.22;;;0.93;;
50851;SDS011;43953;45.508;-122.806;2023-03-11T01:56:16;1.10;;;0.80;;
50851;SDS011;43953;45.508;-122.806;2023-03-11T01:56:49;2.20;;;0.90;;
50851;SDS011;43953;45.508;-122.806;2023-03-11T01:57:22;1.55;;;0.90;;
50851;SDS011;43953;45.508;-122.806;2023-03-11T01:57:53;1.73;;;1.00;;
50851;SDS011;43953;45.508;-122.806;2023-03-11T01:58:27;1.42;;;0.82;;
50851;SDS011;43953;45.508;-122.806;2023-03-11T01:59:03;1.00;;;0.90;;
50851;SDS011;43953;45.508;-122.806;2023-03-11T01:59:40;1.95;;;1.00;;
50851;SDS011;43953;45.508;-122.806;2023-03-11T02:00:17;1.58;;;1.00;;
50851;SDS011;43953;45.508;-122.806;2023-03-11T02:00:49;0.90;;;0.80;;
50851;SDS011;43953;45.508;-122.806;2023-03-11T02:01:21;1.10;;;1.00;;
50851;SDS011;43953;45.508;-122.806;2023-03-11T02:02:00;1.42;;;1.00;;
50851;SDS011;43953;45.508;-122.806;2023-03-11T02:02:56;1.33;;;1.00;;
50851;SDS011;43953;45.508;-122.806;2023-03-11T02:03:32;1.58;;;1.20;;
50851;SDS011;43953;45.508;-122.806;2023-03-11T02:04:07;2.13;;;0.90;;
50851;SDS011;43953;45.508;-122.806;2023-03-11T02:04:39;0.98;;;0.90;;
50851;SDS011;43953;45.508;-122.806;2023-03-11T02:05:12;1.15;;;1.05;;
50851;SDS011;43953;45.508;-122.806;2023-03-11T02:05:44;2.15;;;1.20;;
50851;SDS011;43953;45.508;-122.806;2023-03-11T02:06:18;1.42;;;1.15;;
50851;SDS011;43953;45.508;-122.806;2023-03-11T02:06:52;2.40;;;1.20;;
50851;SDS011;43953;45.508;-122.806;2023-03-11T02:07:25;1.25;;;0.90;;
50851;SDS011;43953;45.508;-122.806;2023-03-11T02:07:57;1.83;;;1.20;;
50851;SDS011;43953;45.508;-122.806;2023-03-11T02:08:29;1.95;;;0.90;;
50851;SDS011;43953;45.508;-122.806;2023-03-11T02:09:04;1.67;;;1.10;;
50851;SDS011;43953;45.508;-122.806;2023-03-11T02:09:36;1.40;;;1.10;;
50851;SDS011;43953;45.508;-122.806;2023-03-11T02:10:08;1.80;;;1.10;;
50851;SDS011;43953;45.508;-122.806;2023-03-11T02:10:43;1.77;;;0.90;;
50851;SDS011;43953;45.508;-122.806;2023-03-11T02:11:21;2.30;;;1.10;;
50851;SDS011;43953;45.508;-122.806;2023-03-11T02:11:56;1.40;;;1.13;;
50851;SDS011;43953;45.508;-122.806;2023-03-11T02:12:29;1.67;;;1.00;;
50851;SDS011;43953;45.508;-122.806;2023-03-11T02:13:04;2.08;;;1.13;;
50851;SDS011;43953;45.508;-122.806;2023-03-11T02:13:36;1.45;;;0.90;;
50851;SDS011;43953;45.508;-122.806;2023-03-11T02:14:10;1.33;;;1.20;;
50851;SDS011;43953;45.508;-122.806;2023-03-11T02:14:43;2.15;;;1.10;;
50851;SDS011;43953;45.508;-122.806;2023-03-11T02:15:18;2.30;;;1.13;;
50851;SDS011;43953;45.508;-122.806;2023-03-11T02:15:49;1.10;;;1.00;;
50851;SDS011;43953;45.508;-122.806;2023-03-11T02:16:22;2.05;;;1.00;;
50851;SDS011;43953;45.508;-122.806;2023-03-11T02:16:54;1.35;;;1.00;;
50851;SDS011;43953;45.508;-122.806;2023-03-11T02:17:27;1.98;;;0.80;;
50851;SDS011;43953;45.508;-122.806;2023-03-11T02:18:04;1.67;;;1.08;;
50851;SDS011;43953;45.508;-122.806;2023-03-11T02:18:37;1.58;;;0.98;;
50851;SDS011;43953;45.508;-122.806;2023-03-11T02:19:17;2.92;;;1.52;;
50851;SDS011;43953;45.508;-122.806;2023-03-11T02:21:51;1.48;;;0.90;;
50851;SDS011;43953;45.508;-122.806;2023-03-11T02:22:23;1.55;;;1.10;;
50851;SDS011;43953;45.508;-122.806;2023-03-11T02:22:54;1.30;;;0.90;;
50851;SDS011;43953;45.508;-122.806;2023-03-11T02:23:29;1.33;;;1.15;;
50851;SDS011;43953;45.508;-122.806;2023-03-11T02:24:29;1.73;;;1.10;;
50851;SDS011;43953;45.508;-122.806;2023-03-11T02:26:10;1.00;;;0.90;;
50851;SDS011;43953;45.508;-122.806;2023-03-11T02:27:24;1.63;;;1.00;;
50851;SDS011;43953;45.508;-122.806;2023-03-11T02:27:58;1.95;;;0.90;;
50851;SDS011;43953;45.508;-122.806;2023-03-11T02:28:33;2.20;;;1.10;;
50851;SDS011;43953;45.508;-122.806;2023-03-11T02:29:07;2.47;;;1.00;;
50851;SDS011;43953;45.508;-122.806;2023-03-11T02:29:41;1.73;;;0.88;;
50851;SDS011;43953;45.508;-122.806;2023-03-11T02:30:15;1.70;;;0.90;;
50851;SDS011;43953;45.508;-122.806;2023-03-11T02:30:47;1.70;;;1.10;;
50851;SDS011;43953;45.508;-122.806;2023-03-11T02:31:20;1.80;;;1.00;;
50851;SDS011;43953;45.508;-122.806;2023-03-11T02:31:54;2.22;;;0.80;;
50851;SDS011;43953;45.508;-122.806;2023-03-11T02:32:27;2.05;;;0.80;;
50851;SDS011;43953;45.508;-122.806;2023-03-11T02:32:59;1.73;;;1.00;;
50851;SDS011;43953;45.508;-122.806;2023-03-11T02:33:32;2.72;;;1.23;;
50851;SDS011;43953;45.508;-122.806;2023-03-11T02:34:07;2.00;;;1.00;;
50851;SDS011;43953;45.508;-122.806;2023-03-11T02:34:53;1.70;;;1.05;;
50851;SDS011;43953;45.508;-122.806;2023-03-11T02:35:25;1.60;;;1.02;;
50851;SDS011;43953;45.508;-122.806;2023-03-11T02:35:57;1.23;;;1.10;;
50851;SDS011;43953;45.508;-122.806;2023-03-11T02:36:29;3.40;;;1.13;;
50851;SDS011;43953;45.508;-122.806;2023-03-11T02:37:03;3.17;;;1.20;;
50851;SDS011;43953;45.508;-122.806;2023-03-11T02:37:42;3.97;;;1.30;;
50851;SDS011;43953;45.508;-122.806;2023-03-11T02:38:15;1.58;;;1.20;;
50851;SDS011;43953;45.508;-122.806;2023-03-11T02:38:47;1.90;;;1.10;;
50851;SDS011;43953;45.508;-122.806;2023-03-11T02:39:29;2.42;;;1.20;;
50851;SDS011;43953;45.508;-122.806;2023-03-11T02:40:34;2.30;;;1.20;;
50851;SDS011;43953;45.508;-122.806;2023-03-11T02:41:26;2.58;;;1.13;;
50851;SDS011;43953;45.508;-122.806;2023-03-11T02:42:01;2.55;;;1.27;;
50851;SDS011;43953;45.508;-122.806;2023-03-11T02:42:49;1.98;;;1.27;;
50851;SDS011;43953;45.508;-122.806;2023-03-11T02:43:25;2.53;;;0.98;;
50851;SDS011;43953;45.508;-122.806;2023-03-11T02:44:05;2.88;;;1.10;;
50851;SDS011;43953;45.508;-122.806;2023-03-11T02:44:41;2.47;;;1.10;;
50851;SDS011;43953;45.508;-122.806;2023-03-11T02:45:15;2.55;;;1.10;;
50851;SDS011;43953;45.508;-122.806;2023-03-11T02:45:50;4.68;;;1.33;;
50851;SDS011;43953;45.508;-122.806;2023-03-11T02:46:21;2.28;;;1.40;;
50851;SDS011;43953;45.508;-122.806;2023-03-11T02:46:53;1.92;;;1.20;;
50851;SDS011;43953;45.508;-122.806;2023-03-11T02:47:25;2.85;;;1.10;;
50851;SDS011;43953;45.508;-122.806;2023-03-11T02:47:57;3.22;;;1.25;;
50851;SDS011;43953;45.508;-122.806;2023-03-11T02:48:30;1.60;;;1.00;;
50851;SDS011;43953;45.508;-122.806;2023-03-11T02:49:02;3.13;;;1.05;;
50851;SDS011;43953;45.508;-122.806;2023-03-11T02:49:34;4.05;;;1.30;;
50851;SDS011;43953;45.508;-122.806;2023-03-11T02:50:08;1.67;;;1.10;;
50851;SDS011;43953;45.508;-122.806;2023-03-11T02:50:43;2.72;;;1.50;;
50851;SDS011;43953;45.508;-122.806;2023-03-11T02:51:17;3.47;;;1.30;;
50851;SDS011;43953;45.508;-122.806;2023-03-11T02:51:48;4.47;;;1.10;;
50851;SDS011;43953;45.508;-122.806;2023-03-11T02:52:24;2.25;;;1.42;;
50851;SDS011;43953;45.508;-122.806;2023-03-11T02:52:56;2.00;;;1.20;;
50851;SDS011;43953;45.508;-122.806;2023-03-11T02:53:28;3.17;;;1.20;;
50851;SDS011;43953;45.508;-122.806;2023-03-11T02:54:03;3.85;;;1.70;;
50851;SDS011;43953;45.508;-122.806;2023-03-11T02:54:35;2.85;;;1.17;;
50851;SDS011;43953;45.508;-122.806;2023-03-11T02:55:07;2.15;;;1.25;;
50851;SDS011;43953;45.508;-122.806;2023-03-11T02:55:41;3.55;;;1.42;;
50851;SDS011;43953;45.508;-122.806;2023-03-11T02:56:13;1.67;;;0.98;;
50851;SDS011;43953;45.508;-122.806;2023-03-11T02:56:45;2.90;;;1.27;;
50851;SDS011;43953;45.508;-122.806;2023-03-11T02:57:16;2.95;;;1.20;;
50851;SDS011;43953;45.508;-122.806;2023-03-11T02:57:48;2.55;;;1.23;;
50851;SDS011;43953;45.508;-122.806;2023-03-11T02:58:20;3.47;;;1.45;;
50851;SDS011;43953;45.508;-122.806;2023-03-11T02:58:51;2.53;;;1.40;;
50851;SDS011;43953;45.508;-122.806;2023-03-11T02:59:23;2.80;;;1.48;;
50851;SDS011;43953;45.508;-122.806;2023-03-11T02:59:55;3.30;;;1.70;;
50851;SDS011;43953;45.508;-122.806;2023-03-11T03:00:26;2.60;;;1.52;;
50851;SDS011;43953;45.508;-122.806;2023-03-11T03:00:58;2.58;;;1.45;;
50851;SDS011;43953;45.508;-122.806;2023-03-11T03:01:30;2.65;;;1.40;;
50851;SDS011;43953;45.508;-122.806;2023-03-11T03:02:02;3.45;;;1.30;;
50851;SDS011;43953;45.508;-122.806;2023-03-11T03:02:34;2.30;;;1.30;;
50851;SDS011;43953;45.508;-122.806;2023-03-11T03:03:05;1.85;;;1.27;;
50851;SDS011;43953;45.508;-122.806;2023-03-11T03:03:38;2.90;;;1.52;;
50851;SDS011;43953;45.508;-122.806;2023-03-11T03:04:10;1.27;;;0.93;;
50851;SDS011;43953;45.508;-122.806;2023-03-11T03:04:42;1.73;;;1.17;;
50851;SDS011;43953;45.508;-122.806;2023-03-11T03:05:14;2.50;;;1.17;;
50851;SDS011;43953;45.508;-122.806;2023-03-11T03:05:46;2.63;;;1.30;;
50851;SDS011;43953;45.508;-122.806;2023-03-11T03:06:17;1.98;;;1.42;;
50851;SDS011;43953;45.508;-122.806;2023-03-11T03:06:49;2.50;;;1.35;;
50851;SDS011;43953;45.508;-122.806;2023-03-11T03:07:21;1.60;;;1.20;;
50851;SDS011;43953;45.508;-122.806;2023-03-11T03:07:52;2.75;;;1.35;;
50851;SDS011;43953;45.508;-122.806;2023-03-11T03:08:24;2.88;;;1.17;;
50851;SDS011;43953;45.508;-122.806;2023-03-11T03:08:56;3.25;;;1.30;;
50851;SDS011;43953;45.508;-122.806;2023-03-11T03:09:28;2.20;;;1.23;;
50851;SDS011;43953;45.508;-122.806;2023-03-11T03:09:59;2.95;;;1.30;;
50851;SDS011;43953;45.508;-122.806;2023-03-11T03:10:31;1.77;;;1.10;;
50851;SDS011;43953;45.508;-122.806;2023-03-11T03:11:03;1.73;;;1.10;;
50851;SDS011;43953;45.508;-122.806;2023-03-11T03:11:35;1.60;;;1.20;;
50851;SDS011;43953;45.508;-122.806;2023-03-11T03:12:07;1.83;;;1.20;;
50851;SDS011;43953;45.508;-122.806;2023-03-11T03:12:38;2.60;;;1.10;;
50851;SDS011;43953;45.508;-122.806;2023-03-11T03:13:10;1.13;;;1.00;;
50851;SDS011;43953;45.508;-122.806;2023-03-11T03:13:42;2.47;;;1.10;;
50851;SDS011;43953;45.508;-122.806;2023-03-11T03:14:13;1.33;;;1.00;;
50851;SDS011;43953;45.508;-122.806;2023-03-11T03:14:46;1.98;;;1.10;;
50851;SDS011;43953;45.508;-122.806;2023-03-11T03:15:18;2.03;;;1.30;;
50851;SDS011;43953;45.508;-122.806;2023-03-11T03:15:50;2.42;;;1.10;;
50851;SDS011;43953;45.508;-122.806;2023-03-11T03:16:21;2.20;;;1.20;;
50851;SDS011;43953;45.508;-122.806;2023-03-11T03:16:53;2.92;;;1.33;;
50851;SDS011;43953;45.508;-122.806;2023-03-11T03:17:25;2.65;;;1.02;;
50851;SDS011;43953;45.508;-122.806;2023-03-11T03:17:56;1.23;;;1.00;;
50851;SDS011;43953;45.508;-122.806;2023-03-11T03:18:28;1.83;;;1.10;;